Time;durP1;ratioP1;P1;durP2;ratioP2;P2;SDS_P1;SDS_P2;PMS_P1;PMS_P2;Temp;Humidity;BMP_temperature;BMP_pressure;BME280_temperature;BME280_humidity;BME280_pressure;Samples;Min_cycle;Max_cycle;Signal;HPM_P1;HPM_P2
2023/10/26 00:00:18;;;;;;;21.10;11.75;;;;;;;;;;5063594;28;20259;-37
2023/10/26 00:02:43;;;;;;;21.00;11.60;;;;;;;;;;5063427;28;20016;-38
2023/10/26 00:05:08;;;;;;;29.23;13.13;;;;;;;;;;5065198;28;20307;-37
2023/10/26 00:07:34;;;;;;;26.05;13.15;;;;;;;;;;5066334;28;20055;-37
2023/10/26 00:09:59;;;;;;;21.50;11.98;;;;;;;;;;5062060;28;20027;-38
2023/10/26 00:12:24;;;;;;;23.20;11.97;;;;;;;;;;5059378;28;20032;-37
2023/10/26 00:14:49;;;;;;;22.07;11.20;;;;;;;;;;5068470;28;20271;-37
2023/10/26 00:17:15;;;;;;;23.45;11.32;;;;;;;;;;5068287;28;20266;-37
2023/10/26 00:19:40;;;;;;;18.90;10.87;;;;;;;;;;5059405;28;20029;-38
2023/10/26 00:22:05;;;;;;;20.30;11.93;;;;;;;;;;5062882;28;20271;-38
2023/10/26 00:24:31;;;;;;;23.45;12.13;;;;;;;;;;5060429;28;21053;-37
2023/10/26 00:26:56;;;;;;;21.83;11.23;;;;;;;;;;5063959;28;20033;-37
2023/10/26 00:29:21;;;;;;;22.10;10.33;;;;;;;;;;5064505;28;20024;-38
2023/10/26 00:31:46;;;;;;;22.40;11.98;;;;;;;;;;5056435;28;20297;-37
2023/10/26 00:34:12;;;;;;;22.90;11.30;;;;;;;;;;5066446;28;20383;-37
2023/10/26 00:36:37;;;;;;;21.87;12.70;;;;;;;;;;5065829;28;20271;-37
2023/10/26 00:39:02;;;;;;;22.92;11.45;;;;;;;;;;5062396;28;20934;-37
2023/10/26 00:41:28;;;;;;;19.02;11.32;;;;;;;;;;5063645;28;20044;-37
2023/10/26 00:43:53;;;;;;;24.20;11.37;;;;;;;;;;5065355;28;20103;-38
2023/10/26 00:46:18;;;;;;;21.27;12.70;;;;;;;;;;5066786;28;20271;-38
2023/10/26 00:48:43;;;;;;;21.13;11.88;;;;;;;;;;5066021;28;20282;-37
2023/10/26 00:51:09;;;;;;;18.63;11.33;;;;;;;;;;5057355;28;20033;-37
2023/10/26 00:53:34;;;;;;;23.10;12.95;;;;;;;;;;5059991;28;20761;-37
2023/10/26 00:56:00;;;;;;;26.15;11.55;;;;;;;;;;5066502;28;20112;-37
2023/10/26 00:58:26;;;;;;;21.83;11.93;;;;;;;;;;5057365;28;20635;-37
2023/10/26 01:00:51;;;;;;;21.05;12.02;;;;;;;;;;5060010;28;20115;-37
2023/10/26 01:03:17;;;;;;;16.48;10.57;;;;;;;;;;5063988;28;20108;-37
2023/10/26 01:05:42;;;;;;;22.00;12.82;;;;;;;;;;5063537;28;20056;-37
2023/10/26 01:08:07;;;;;;;25.10;12.85;;;;;;;;;;5067060;28;20101;-37
2023/10/26 01:10:34;;;;;;;22.97;12.03;;;;;;;;;;5065015;28;20141;-37
2023/10/26 01:12:59;;;;;;;24.35;12.35;;;;;;;;;;5064208;28;20278;-37
2023/10/26 01:15:25;;;;;;;22.42;12.35;;;;;;;;;;5059696;28;20045;-37
2023/10/26 01:17:50;;;;;;;19.92;11.52;;;;;;;;;;5065376;28;20083;-37
2023/10/26 01:20:19;;;;;;;25.17;12.27;;;;;;;;;;5058713;28;20475;-37
2023/10/26 01:22:44;;;;;;;26.33;13.05;;;;;;;;;;5061207;28;20027;-37
2023/10/26 01:25:09;;;;;;;22.58;12.50;;;;;;;;;;5065751;28;20032;-38
2023/10/26 01:27:37;;;;;;;25.45;12.05;;;;;;;;;;5067460;28;20013;-38
2023/10/26 01:30:02;;;;;;;26.60;12.55;;;;;;;;;;5058867;28;20661;-38
2023/10/26 01:32:27;;;;;;;28.33;12.43;;;;;;;;;;5058202;28;20116;-38
2023/10/26 01:34:52;;;;;;;16.15;8.10;;;;;;;;;;5063417;28;20545;-37
2023/10/26 01:37:18;;;;;;;23.63;12.53;;;;;;;;;;5050094;28;20642;-37
2023/10/26 01:39:43;;;;;;;25.07;12.80;;;;;;;;;;5065620;28;20263;-37
2023/10/26 01:42:10;;;;;;;28.05;13.15;;;;;;;;;;5060490;28;20290;-37
2023/10/26 01:44:36;;;;;;;23.60;13.43;;;;;;;;;;5065790;28;20033;-38
2023/10/26 01:47:01;;;;;;;25.33;12.98;;;;;;;;;;5063393;28;20111;-37
2023/10/26 01:49:27;;;;;;;31.13;12.50;;;;;;;;;;5061578;28;20033;-38
2023/10/26 01:51:52;;;;;;;21.57;12.00;;;;;;;;;;5066522;28;20297;-38
2023/10/26 01:54:17;;;;;;;25.45;12.77;;;;;;;;;;5056079;28;20284;-37
2023/10/26 01:56:43;;;;;;;21.23;12.25;;;;;;;;;;5058456;28;20035;-38
2023/10/26 01:59:08;;;;;;;23.87;13.93;;;;;;;;;;5064861;28;20029;-38
2023/10/26 02:01:34;;;;;;;21.60;12.38;;;;;;;;;;5064022;28;20622;-37
2023/10/26 02:03:59;;;;;;;26.27;13.60;;;;;;;;;;5068017;28;20910;-37
2023/10/26 02:06:24;;;;;;;21.48;12.02;;;;;;;;;;5071036;28;20024;-37
2023/10/26 02:08:49;;;;;;;23.57;13.60;;;;;;;;;;5069019;28;20044;-38
2023/10/26 02:11:15;;;;;;;24.93;13.10;;;;;;;;;;5062393;28;20807;-37
2023/10/26 02:13:40;;;;;;;27.20;13.63;;;;;;;;;;5068288;28;20408;-37
2023/10/26 02:16:06;;;;;;;24.85;13.98;;;;;;;;;;5069733;28;20025;-38
2023/10/26 02:18:31;;;;;;;26.15;14.05;;;;;;;;;;5069098;28;20031;-37
2023/10/26 02:20:57;;;;;;;23.23;14.15;;;;;;;;;;5064712;28;20048;-38
2023/10/26 02:23:22;;;;;;;24.10;13.68;;;;;;;;;;5066383;28;20031;-38
2023/10/26 02:25:47;;;;;;;25.08;13.40;;;;;;;;;;5065937;28;20037;-37
2023/10/26 02:28:15;;;;;;;24.77;13.85;;;;;;;;;;5065692;28;20079;-37
2023/10/26 02:30:44;;;;;;;28.38;13.75;;;;;;;;;;5059890;28;20375;-37
2023/10/26 02:33:09;;;;;;;35.25;14.65;;;;;;;;;;5064180;28;20028;-37
2023/10/26 02:35:34;;;;;;;30.20;14.05;;;;;;;;;;5064245;28;20009;-37
2023/10/26 02:37:59;;;;;;;31.23;14.93;;;;;;;;;;5065743;28;20166;-38
2023/10/26 02:40:25;;;;;;;28.13;14.63;;;;;;;;;;5064768;28;20263;-38
2023/10/26 02:42:50;;;;;;;28.40;15.32;;;;;;;;;;5066988;28;20270;-37
2023/10/26 02:45:15;;;;;;;27.83;14.77;;;;;;;;;;5063702;28;20024;-37
2023/10/26 02:47:41;;;;;;;32.25;15.82;;;;;;;;;;5062772;28;20024;-37
2023/10/26 02:50:06;;;;;;;30.30;17.02;;;;;;;;;;5066546;28;20462;-38
2023/10/26 02:52:32;;;;;;;27.95;15.90;;;;;;;;;;5063573;28;20462;-37
2023/10/26 02:54:57;;;;;;;30.03;15.00;;;;;;;;;;5066928;28;20021;-37
2023/10/26 02:57:22;;;;;;;26.87;15.43;;;;;;;;;;5065699;28;20267;-37
2023/10/26 02:59:47;;;;;;;31.40;16.83;;;;;;;;;;5065455;28;20267;-37
2023/10/26 03:02:12;;;;;;;28.93;15.03;;;;;;;;;;5065013;28;20278;-38
2023/10/26 03:04:38;;;;;;;28.03;14.77;;;;;;;;;;5058230;28;20697;-37
2023/10/26 03:07:03;;;;;;;27.50;14.48;;;;;;;;;;5067490;28;20274;-37
2023/10/26 03:09:29;;;;;;;28.48;15.68;;;;;;;;;;5065775;28;20543;-38
2023/10/26 03:11:55;;;;;;;30.65;15.50;;;;;;;;;;5060415;28;20019;-37
2023/10/26 03:14:20;;;;;;;31.05;16.05;;;;;;;;;;5062735;28;20013;-37
2023/10/26 03:16:46;;;;;;;33.97;16.50;;;;;;;;;;5065694;28;20487;-38
2023/10/26 03:19:12;;;;;;;72.78;35.97;;;;;;;;;;5062391;28;20347;-37
2023/10/26 03:21:37;;;;;;;41.13;20.42;;;;;;;;;;5064271;28;20112;-37
2023/10/26 03:24:02;;;;;;;29.93;15.13;;;;;;;;;;5067007;28;20024;-37
2023/10/26 03:26:28;;;;;;;34.97;16.25;;;;;;;;;;5068206;28;20275;-37
2023/10/26 03:28:53;;;;;;;30.88;15.10;;;;;;;;;;5069138;28;20111;-37
2023/10/26 03:31:18;;;;;;;30.03;16.30;;;;;;;;;;5056190;28;20115;-37
2023/10/26 03:33:43;;;;;;;30.63;15.32;;;;;;;;;;5063178;28;20266;-37
2023/10/26 03:36:15;;;;;;;27.67;15.35;;;;;;;;;;5064590;28;20103;-37
2023/10/26 03:38:41;;;;;;;30.65;15.75;;;;;;;;;;5064356;28;20491;-37
2023/10/26 03:41:07;;;;;;;28.70;15.88;;;;;;;;;;5063498;28;20028;-37
2023/10/26 03:43:32;;;;;;;31.05;17.25;;;;;;;;;;5060636;28;20539;-37
2023/10/26 03:45:57;;;;;;;33.27;16.43;;;;;;;;;;5067574;28;20522;-37
2023/10/26 03:48:22;;;;;;;33.30;17.20;;;;;;;;;;5067181;28;20271;-38
2023/10/26 03:50:48;;;;;;;31.80;15.87;;;;;;;;;;5062349;28;20309;-37
2023/10/26 03:53:13;;;;;;;55.30;25.90;;;;;;;;;;5063672;28;20842;-38
2023/10/26 03:55:38;;;;;;;35.80;19.20;;;;;;;;;;5065937;28;20380;-37
2023/10/26 03:58:03;;;;;;;35.50;15.40;;;;;;;;;;5066124;28;20267;-38
2023/10/26 04:00:29;;;;;;;30.02;16.38;;;;;;;;;;5063319;28;20350;-37
2023/10/26 04:02:54;;;;;;;19.33;10.07;;;;;;;;;;5054343;28;20078;-37
2023/10/26 04:05:19;;;;;;;32.17;16.55;;;;;;;;;;5065170;28;20879;-38
2023/10/26 04:07:44;;;;;;;30.85;14.75;;;;;;;;;;5061960;28;20029;-37
2023/10/26 04:10:10;;;;;;;28.57;15.77;;;;;;;;;;5062200;28;20515;-38
2023/10/26 04:12:35;;;;;;;29.30;15.17;;;;;;;;;;5066854;28;20283;-37
2023/10/26 04:15:01;;;;;;;27.00;14.43;;;;;;;;;;5065777;28;20278;-38
2023/10/26 04:17:26;;;;;;;32.00;15.63;;;;;;;;;;5068359;28;20270;-37
2023/10/26 04:19:51;;;;;;;45.07;23.03;;;;;;;;;;5058070;28;20138;-38
2023/10/26 04:22:16;;;;;;;40.40;19.23;;;;;;;;;;5061480;28;20266;-37
2023/10/26 04:24:42;;;;;;;28.40;14.75;;;;;;;;;;5058097;28;20365;-38
2023/10/26 04:27:07;;;;;;;34.80;14.80;;;;;;;;;;5054337;28;20031;-37
2023/10/26 04:29:33;;;;;;;29.02;13.23;;;;;;;;;;5062495;28;20329;-37
2023/10/26 04:31:58;;;;;;;30.50;14.93;;;;;;;;;;5066082;28;20025;-38
2023/10/26 04:34:23;;;;;;;30.43;14.73;;;;;;;;;;5051525;28;20021;-38
2023/10/26 04:36:48;;;;;;;27.08;14.32;;;;;;;;;;5051524;28;20289;-37
2023/10/26 04:39:15;;;;;;;31.03;15.43;;;;;;;;;;5060121;28;20450;-37
2023/10/26 04:41:40;;;;;;;30.05;14.18;;;;;;;;;;5067054;28;20282;-38
2023/10/26 04:44:06;;;;;;;30.50;14.43;;;;;;;;;;5061470;28;20051;-37
2023/10/26 04:46:32;;;;;;;29.25;14.20;;;;;;;;;;5063857;28;20043;-38
2023/10/26 04:48:57;;;;;;;29.08;14.60;;;;;;;;;;5066886;28;20030;-37
2023/10/26 04:51:22;;;;;;;21.53;9.13;;;;;;;;;;5065278;28;20016;-37
2023/10/26 04:53:48;;;;;;;28.70;14.30;;;;;;;;;;5054030;28;20286;-38
2023/10/26 04:56:13;;;;;;;26.60;13.63;;;;;;;;;;5064618;28;20024;-37
2023/10/26 04:58:38;;;;;;;29.80;13.77;;;;;;;;;;5063875;28;20016;-37
2023/10/26 05:01:04;;;;;;;29.43;13.03;;;;;;;;;;5065265;28;20271;-38
2023/10/26 05:03:29;;;;;;;26.38;13.98;;;;;;;;;;5066707;28;20294;-38
2023/10/26 05:05:55;;;;;;;28.60;13.43;;;;;;;;;;5067130;28;20047;-37
2023/10/26 05:08:20;;;;;;;34.08;15.07;;;;;;;;;;5067332;28;20542;-37
2023/10/26 05:10:46;;;;;;;36.20;15.05;;;;;;;;;;5043243;28;20545;-37
2023/10/26 05:13:11;;;;;;;27.42;13.05;;;;;;;;;;5059606;28;20568;-37
2023/10/26 05:15:37;;;;;;;30.10;12.55;;;;;;;;;;5065036;28;20112;-37
2023/10/26 05:18:03;;;;;;;28.50;12.82;;;;;;;;;;5067773;28;20027;-37
2023/10/26 05:20:30;;;;;;;29.52;13.80;;;;;;;;;;5063827;28;20052;-37
2023/10/26 05:22:55;;;;;;;25.98;14.57;;;;;;;;;;5061898;28;20028;-37
2023/10/26 05:25:21;;;;;;;28.05;13.18;;;;;;;;;;5067835;28;20033;-38
2023/10/26 05:27:46;;;;;;;18.33;8.55;;;;;;;;;;5064856;28;20028;-37
2023/10/26 05:30:11;;;;;;;28.58;13.00;;;;;;;;;;5054404;28;20071;-37
2023/10/26 05:32:37;;;;;;;37.63;16.87;;;;;;;;;;5060175;28;20020;-38
2023/10/26 05:35:03;;;;;;;33.45;16.38;;;;;;;;;;5057625;28;20806;-37
2023/10/26 05:37:29;;;;;;;29.92;13.43;;;;;;;;;;5061271;28;20020;-38
2023/10/26 05:39:54;;;;;;;28.00;12.65;;;;;;;;;;5064783;28;20038;-38
2023/10/26 05:42:19;;;;;;;27.42;12.65;;;;;;;;;;5062302;28;20025;-38
2023/10/26 05:44:45;;;;;;;28.17;12.15;;;;;;;;;;5060009;28;20391;-38
2023/10/26 05:47:10;;;;;;;28.13;12.40;;;;;;;;;;5060260;28;20040;-37
2023/10/26 05:49:35;;;;;;;23.23;12.35;;;;;;;;;;5064292;28;20275;-38
2023/10/26 05:52:01;;;;;;;29.30;12.93;;;;;;;;;;5059652;28;20506;-37
2023/10/26 05:54:27;;;;;;;28.50;12.73;;;;;;;;;;5045191;28;20028;-37
2023/10/26 05:56:52;;;;;;;26.23;13.70;;;;;;;;;;5061898;28;20033;-39
2023/10/26 05:59:17;;;;;;;17.33;7.93;;;;;;;;;;5063308;28;20175;-37
2023/10/26 06:01:43;;;;;;;25.50;11.83;;;;;;;;;;5066563;28;21361;-37
2023/10/26 06:04:08;;;;;;;30.50;13.23;;;;;;;;;;5062479;28;20275;-38
2023/10/26 06:06:33;;;;;;;28.80;14.00;;;;;;;;;;5061000;28;20117;-37
2023/10/26 06:08:59;;;;;;;26.83;12.10;;;;;;;;;;5060169;28;20149;-37
2023/10/26 06:11:25;;;;;;;29.27;12.50;;;;;;;;;;5056598;28;20041;-39
2023/10/26 06:13:51;;;;;;;34.00;14.48;;;;;;;;;;5065791;28;20047;-39
2023/10/26 06:16:17;;;;;;;28.55;11.85;;;;;;;;;;5065380;28;20479;-39
2023/10/26 06:18:42;;;;;;;22.60;11.82;;;;;;;;;;5064102;28;20041;-39
2023/10/26 06:21:08;;;;;;;26.77;11.38;;;;;;;;;;5065133;28;20032;-39
2023/10/26 06:23:33;;;;;;;22.10;11.05;;;;;;;;;;5061077;28;20021;-38
2023/10/26 06:25:59;;;;;;;23.30;11.57;;;;;;;;;;5063229;28;20383;-39
2023/10/26 06:28:25;;;;;;;25.75;11.70;;;;;;;;;;5051696;28;20029;-38
2023/10/26 06:30:50;;;;;;;26.27;12.32;;;;;;;;;;5063949;28;20123;-39
2023/10/26 06:33:16;;;;;;;27.25;12.35;;;;;;;;;;5068388;28;20017;-39
2023/10/26 06:35:41;;;;;;;25.95;11.60;;;;;;;;;;5059357;28;20029;-38
2023/10/26 06:38:06;;;;;;;31.50;11.97;;;;;;;;;;5060406;28;20032;-40
2023/10/26 06:40:34;;;;;;;25.85;12.18;;;;;;;;;;5059766;28;20263;-41
2023/10/26 06:43:00;;;;;;;27.65;11.10;;;;;;;;;;5066389;28;20054;-40
2023/10/26 06:45:26;;;;;;;27.15;12.43;;;;;;;;;;5054849;28;20017;-37
2023/10/26 06:47:51;;;;;;;27.00;11.23;;;;;;;;;;5066081;28;20383;-37
2023/10/26 06:50:16;;;;;;;27.85;12.15;;;;;;;;;;5066026;28;20464;-37
2023/10/26 06:52:41;;;;;;;33.47;13.27;;;;;;;;;;5065288;28;20020;-37
2023/10/26 06:55:07;;;;;;;29.77;12.17;;;;;;;;;;5067955;28;20065;-37
2023/10/26 06:57:35;;;;;;;26.35;13.00;;;;;;;;;;5069846;28;20668;-37
2023/10/26 07:00:01;;;;;;;26.58;13.65;;;;;;;;;;5066272;28;20033;-37
2023/10/26 07:02:26;;;;;;;26.38;11.60;;;;;;;;;;5066723;28;20172;-37
2023/10/26 07:04:51;;;;;;;26.17;12.32;;;;;;;;;;5056822;28;20479;-37
2023/10/26 07:07:17;;;;;;;24.27;11.67;;;;;;;;;;5070093;28;20121;-39
2023/10/26 07:09:42;;;;;;;31.73;14.38;;;;;;;;;;5063635;28;20287;-38
2023/10/26 07:12:07;;;;;;;30.73;13.68;;;;;;;;;;5068451;28;20529;-38
2023/10/26 07:14:34;;;;;;;32.40;13.52;;;;;;;;;;5065171;28;20115;-38
2023/10/26 07:16:59;;;;;;;25.75;13.02;;;;;;;;;;5070003;28;20021;-38
2023/10/26 07:19:24;;;;;;;30.95;14.25;;;;;;;;;;5066006;28;20035;-38
2023/10/26 07:21:49;;;;;;;25.43;11.47;;;;;;;;;;5071892;28;20028;-38
2023/10/26 07:24:15;;;;;;;24.57;12.27;;;;;;;;;;5061706;28;20271;-38
2023/10/26 07:26:40;;;;;;;22.73;11.60;;;;;;;;;;5065364;28;20368;-38
2023/10/26 07:29:05;;;;;;;23.20;10.63;;;;;;;;;;5059789;28;20282;-38
2023/10/26 07:31:30;;;;;;;25.13;10.17;;;;;;;;;;5065970;28;20287;-38
2023/10/26 07:33:56;;;;;;;20.10;10.20;;;;;;;;;;5063260;28;20274;-37
2023/10/26 07:36:25;;;;;;;22.50;10.15;;;;;;;;;;5061948;28;20270;-38
2023/10/26 07:38:51;;;;;;;19.13;9.75;;;;;;;;;;5064026;28;20020;-38
2023/10/26 07:41:16;;;;;;;19.90;9.40;;;;;;;;;;5058632;28;20173;-38
2023/10/26 07:43:41;;;;;;;16.80;7.93;;;;;;;;;;5062475;28;20274;-38
2023/10/26 07:46:06;;;;;;;16.83;8.20;;;;;;;;;;5065331;28;20264;-38
2023/10/26 07:48:32;;;;;;;18.08;8.25;;;;;;;;;;5059393;28;20101;-38
2023/10/26 07:50:57;;;;;;;16.52;7.70;;;;;;;;;;5060826;28;20052;-38
2023/10/26 07:53:23;;;;;;;15.87;7.70;;;;;;;;;;5064653;28;20031;-38
2023/10/26 07:55:48;;;;;;;17.48;8.13;;;;;;;;;;5058563;28;20340;-38
2023/10/26 07:58:14;;;;;;;15.63;8.98;;;;;;;;;;5062850;28;20049;-38
2023/10/26 08:00:39;;;;;;;18.58;8.52;;;;;;;;;;5062025;28;20100;-38
2023/10/26 08:03:04;;;;;;;15.80;7.17;;;;;;;;;;5062996;28;20028;-37
2023/10/26 08:05:30;;;;;;;18.88;8.05;;;;;;;;;;5054508;28;20759;-38
2023/10/26 08:07:55;;;;;;;21.15;9.35;;;;;;;;;;5055075;28;20028;-38
2023/10/26 08:10:21;;;;;;;16.65;7.75;;;;;;;;;;5059618;28;20099;-38
2023/10/26 08:12:49;;;;;;;15.25;7.72;;;;;;;;;;5056582;28;20039;-38
2023/10/26 08:15:14;;;;;;;15.00;7.55;;;;;;;;;;5058317;28;20013;-38
2023/10/26 08:17:40;;;;;;;16.95;8.50;;;;;;;;;;5058513;28;20475;-38
2023/10/26 08:20:07;;;;;;;17.65;8.43;;;;;;;;;;5055923;28;20083;-38
2023/10/26 08:22:35;;;;;;;11.57;4.70;;;;;;;;;;5061465;28;20029;-38
2023/10/26 08:25:00;;;;;;;16.00;7.25;;;;;;;;;;5061049;28;20040;-38
2023/10/26 08:27:26;;;;;;;20.30;8.32;;;;;;;;;;5057930;28;20024;-38
2023/10/26 08:29:51;;;;;;;16.08;7.82;;;;;;;;;;5064402;28;20085;-38
2023/10/26 08:32:17;;;;;;;18.70;9.27;;;;;;;;;;5061599;28;20024;-38
2023/10/26 08:34:44;;;;;;;17.33;9.48;;;;;;;;;;5062510;28;20052;-38
2023/10/26 08:37:09;;;;;;;20.45;9.02;;;;;;;;;;5059133;28;20023;-38
2023/10/26 08:39:35;;;;;;;20.13;9.55;;;;;;;;;;5060993;28;20017;-38
2023/10/26 08:42:01;;;;;;;18.42;10.05;;;;;;;;;;5061615;28;20545;-37
2023/10/26 08:44:27;;;;;;;17.85;9.32;;;;;;;;;;5065230;28;20017;-37
2023/10/26 08:46:57;;;;;;;22.73;11.38;;;;;;;;;;5065787;28;20028;-37
2023/10/26 08:49:26;;;;;;;21.60;10.40;;;;;;;;;;5058461;28;20025;-38
2023/10/26 08:51:51;;;;;;;16.83;9.50;;;;;;;;;;5054928;28;20039;-38
2023/10/26 08:54:16;;;;;;;18.70;10.10;;;;;;;;;;5060337;28;20039;-38
2023/10/26 08:56:42;;;;;;;22.33;10.67;;;;;;;;;;5053983;28;20029;-38
2023/10/26 08:59:07;;;;;;;21.83;11.10;;;;;;;;;;5053179;28;20770;-38
2023/10/26 09:01:33;;;;;;;21.98;10.10;;;;;;;;;;5064903;28;20359;-38
2023/10/26 09:04:06;;;;;;;46.33;22.10;;;;;;;;;;5065414;28;20036;-38
2023/10/26 09:06:42;;;;;;;27.48;12.00;;;;;;;;;;5065580;28;20275;-38
2023/10/26 09:09:07;;;;;;;23.40;10.50;;;;;;;;;;5065292;28;20024;-38
2023/10/26 09:11:32;;;;;;;29.50;11.10;;;;;;;;;;5065253;28;20020;-37
2023/10/26 09:14:16;;;;;;;22.83;11.83;;;;;;;;;;5067837;28;20255;-37
2023/10/26 09:16:43;;;;;;;26.60;11.00;;;;;;;;;;5058256;28;20638;-37
2023/10/26 09:19:09;;;;;;;23.13;11.13;;;;;;;;;;5056359;28;20057;-38
2023/10/26 09:22:03;;;;;;;23.73;12.20;;;;;;;;;;5058350;28;20032;-37
2023/10/26 09:24:29;;;;;;;19.92;9.57;;;;;;;;;;5055108;28;20044;-37
2023/10/26 09:27:03;;;;;;;20.48;10.23;;;;;;;;;;5064603;28;20024;-37
2023/10/26 09:29:35;;;;;;;25.13;11.15;;;;;;;;;;5062183;28;20119;-37
2023/10/26 09:32:00;;;;;;;21.33;11.18;;;;;;;;;;5066163;28;20031;-37
2023/10/26 09:34:27;;;;;;;21.98;10.68;;;;;;;;;;5063650;28;20041;-37
2023/10/26 09:36:59;;;;;;;24.52;11.18;;;;;;;;;;5066128;28;20070;-37
2023/10/26 09:39:24;;;;;;;;;;;;;;;;;;5058975;28;20024;-37
2023/10/26 09:41:50;;;;;;;20.63;9.95;;;;;;;;;;5062477;28;19916;-39
2023/10/26 09:44:15;;;;;;;18.23;9.80;;;;;;;;;;5066755;28;20024;-38
2023/10/26 09:46:41;;;;;;;29.77;13.30;;;;;;;;;;5058409;28;20067;-37
2023/10/26 09:49:06;;;;;;;35.13;15.88;;;;;;;;;;5046006;28;20310;-37
2023/10/26 09:51:32;;;;;;;20.42;10.68;;;;;;;;;;5057294;28;20128;-38
2023/10/26 09:53:59;;;;;;;20.30;10.63;;;;;;;;;;5047614;28;20021;-37
2023/10/26 09:56:27;;;;;;;20.10;10.52;;;;;;;;;;5062062;28;20016;-37
2023/10/26 09:58:52;;;;;;;31.75;12.68;;;;;;;;;;5053361;28;20020;-37
2023/10/26 10:01:35;;;;;;;23.88;11.48;;;;;;;;;;5055913;28;20021;-37
2023/10/26 10:04:01;;;;;;;21.38;11.80;;;;;;;;;;5060268;28;20099;-36
2023/10/26 10:06:45;;;;;;;20.73;10.70;;;;;;;;;;5053425;28;20128;-37
2023/10/26 10:09:10;;;;;;;20.00;10.50;;;;;;;;;;5055725;28;20078;-37
2023/10/26 10:11:36;;;;;;;17.83;10.38;;;;;;;;;;5061355;28;20483;-37
2023/10/26 10:14:01;;;;;;;17.05;10.40;;;;;;;;;;5060275;28;20300;-37
2023/10/26 10:16:35;;;;;;;20.00;10.63;;;;;;;;;;5061772;28;20021;-37
2023/10/26 10:19:20;;;;;;;18.95;10.52;;;;;;;;;;5063441;28;20010;-37
2023/10/26 10:21:47;;;;;;;27.17;10.02;;;;;;;;;;5052695;28;20044;-37
2023/10/26 10:24:33;;;;;;;21.90;10.55;;;;;;;;;;5056469;28;20025;-37
2023/10/26 10:27:11;;;;;;;18.48;8.82;;;;;;;;;;5060243;28;20038;-37
2023/10/26 10:29:40;;;;;;;20.52;10.57;;;;;;;;;;5066074;28;20158;-37
2023/10/26 10:32:05;;;;;;;21.23;10.25;;;;;;;;;;5062231;28;20026;-37
2023/10/26 10:34:41;;;;;;;23.83;11.30;;;;;;;;;;5060776;28;20115;-37
2023/10/26 10:37:21;;;;;;;21.38;10.18;;;;;;;;;;5051746;28;20100;-38
2023/10/26 10:40:05;;;;;;;19.58;9.85;;;;;;;;;;5049518;28;20506;-37
2023/10/26 10:42:30;;;;;;;25.50;10.73;;;;;;;;;;5052996;28;20029;-38
2023/10/26 10:44:56;;;;;;;24.02;12.35;;;;;;;;;;5063940;28;20076;-37
2023/10/26 10:47:26;;;;;;;42.15;18.27;;;;;;;;;;5048596;28;20032;-37
2023/10/26 10:49:51;;;;;;;28.85;14.68;;;;;;;;;;5061843;28;20450;-37
2023/10/26 10:52:17;;;;;;;28.87;14.10;;;;;;;;;;5060714;28;20499;-37
2023/10/26 10:54:47;;;;;;;29.67;15.38;;;;;;;;;;5056889;28;20287;-37
2023/10/26 10:57:12;;;;;;;31.00;14.82;;;;;;;;;;5055073;28;20017;-37
2023/10/26 10:59:37;;;;;;;29.75;15.23;;;;;;;;;;5060234;28;20021;-37
2023/10/26 11:02:05;;;;;;;27.73;13.73;;;;;;;;;;5061351;28;20033;-37
2023/10/26 11:04:31;;;;;;;29.88;15.02;;;;;;;;;;5062388;28;20653;-37
2023/10/26 11:06:56;;;;;;;26.80;13.70;;;;;;;;;;5059612;28;20024;-37
2023/10/26 11:09:21;;;;;;;29.27;14.30;;;;;;;;;;5049950;28;20287;-37
2023/10/26 11:11:47;;;;;;;23.52;12.00;;;;;;;;;;5054351;28;20032;-37
2023/10/26 11:14:12;;;;;;;27.60;13.52;;;;;;;;;;5065535;28;20032;-38
2023/10/26 11:16:40;;;;;;;23.45;12.80;;;;;;;;;;5064478;28;20467;-37
2023/10/26 11:19:06;;;;;;;17.42;8.43;;;;;;;;;;5063287;28;20029;-37
2023/10/26 11:21:31;;;;;;;22.40;11.25;;;;;;;;;;5060912;28;20040;-37
2023/10/26 11:23:56;;;;;;;24.38;13.10;;;;;;;;;;5062418;28;20070;-39
2023/10/26 11:26:21;;;;;;;24.37;12.90;;;;;;;;;;5055229;28;20039;-38
2023/10/26 11:28:47;;;;;;;25.17;13.67;;;;;;;;;;5054811;28;20282;-38
2023/10/26 11:31:12;;;;;;;26.33;12.83;;;;;;;;;;5054671;28;20717;-38
2023/10/26 11:33:42;;;;;;;25.40;11.73;;;;;;;;;;5061418;28;20271;-38
2023/10/26 11:36:11;;;;;;;25.15;11.70;;;;;;;;;;5050093;28;20116;-38
2023/10/26 11:38:44;;;;;;;21.02;11.27;;;;;;;;;;5061423;28;20012;-40
2023/10/26 11:41:10;;;;;;;21.02;11.70;;;;;;;;;;5053743;28;20031;-38
2023/10/26 11:43:36;;;;;;;28.73;13.35;;;;;;;;;;5053559;28;20047;-38
2023/10/26 11:46:05;;;;;;;31.17;14.10;;;;;;;;;;5041320;28;20563;-38
2023/10/26 11:48:33;;;;;;;35.38;17.55;;;;;;;;;;5060014;28;20029;-38
2023/10/26 11:50:58;;;;;;;33.72;15.57;;;;;;;;;;5050687;28;20028;-36
2023/10/26 11:53:27;;;;;;;24.27;13.75;;;;;;;;;;5059987;28;20029;-38
2023/10/26 11:55:52;;;;;;;25.98;11.70;;;;;;;;;;5061050;28;20056;-38
2023/10/26 11:58:18;;;;;;;20.17;11.45;;;;;;;;;;5052210;28;20082;-38
2023/10/26 12:00:44;;;;;;;21.70;11.38;;;;;;;;;;5041794;28;20114;-40
2023/10/26 12:03:09;;;;;;;22.50;10.75;;;;;;;;;;5039495;28;20080;-40
2023/10/26 12:05:35;;;;;;;18.47;10.53;;;;;;;;;;5052146;28;20028;-40
2023/10/26 12:08:00;;;;;;;16.45;11.00;;;;;;;;;;5055948;28;20278;-40
2023/10/26 12:10:26;;;;;;;19.90;10.23;;;;;;;;;;5061670;28;20027;-39
2023/10/26 12:12:52;;;;;;;18.55;10.18;;;;;;;;;;5060013;28;20095;-39
2023/10/26 12:15:18;;;;;;;18.92;10.70;;;;;;;;;;5057891;28;20528;-39
2023/10/26 12:17:43;;;;;;;19.42;10.13;;;;;;;;;;5054525;28;20103;-39
2023/10/26 12:20:09;;;;;;;16.65;9.30;;;;;;;;;;5054013;28;20039;-39
2023/10/26 12:22:34;;;;;;;19.13;10.40;;;;;;;;;;5058927;28;20029;-39
2023/10/26 12:25:04;;;;;;;21.23;11.68;;;;;;;;;;5058521;28;20028;-39
2023/10/26 12:27:29;;;;;;;17.70;9.77;;;;;;;;;;5063883;28;20682;-39
2023/10/26 12:29:54;;;;;;;21.67;13.02;;;;;;;;;;5057332;28;20499;-39
2023/10/26 12:32:20;;;;;;;16.87;9.17;;;;;;;;;;5058828;28;20020;-39
2023/10/26 12:34:45;;;;;;;18.30;9.85;;;;;;;;;;5057872;28;20267;-39
2023/10/26 12:37:10;;;;;;;19.27;9.87;;;;;;;;;;5052690;28;20029;-39
2023/10/26 12:39:36;;;;;;;15.83;9.07;;;;;;;;;;5059258;28;20274;-40
2023/10/26 12:42:01;;;;;;;16.33;10.13;;;;;;;;;;5064596;28;20297;-39
2023/10/26 12:44:26;;;;;;;17.02;9.50;;;;;;;;;;5060711;28;20071;-39
2023/10/26 12:46:52;;;;;;;19.88;9.68;;;;;;;;;;5061181;28;20074;-39
2023/10/26 12:49:17;;;;;;;19.05;9.55;;;;;;;;;;5058126;28;20065;-39
2023/10/26 12:51:43;;;;;;;18.00;10.13;;;;;;;;;;5066078;28;20495;-39
2023/10/26 12:54:08;;;;;;;17.98;9.50;;;;;;;;;;5064826;28;20036;-39
2023/10/26 12:56:34;;;;;;;17.02;10.65;;;;;;;;;;5059990;28;20029;-38
2023/10/26 12:58:59;;;;;;;12.75;6.90;;;;;;;;;;5061184;28;20052;-38
2023/10/26 13:01:24;;;;;;;19.33;11.48;;;;;;;;;;5064282;28;20033;-39
2023/10/26 13:03:51;;;;;;;18.95;9.48;;;;;;;;;;5060271;28;20060;-39
2023/10/26 13:06:16;;;;;;;19.00;10.05;;;;;;;;;;5062896;28;20103;-39
2023/10/26 13:08:41;;;;;;;18.70;10.63;;;;;;;;;;5061004;28;20120;-38
2023/10/26 13:11:07;;;;;;;18.40;9.85;;;;;;;;;;5061176;28;20058;-41
2023/10/26 13:13:32;;;;;;;18.63;10.00;;;;;;;;;;5062639;28;20103;-38
2023/10/26 13:15:57;;;;;;;15.97;9.50;;;;;;;;;;5054461;28;20074;-39
2023/10/26 13:18:22;;;;;;;20.30;9.67;;;;;;;;;;5056883;28;20285;-39
2023/10/26 13:20:48;;;;;;;18.93;10.07;;;;;;;;;;5059773;28;20278;-39
2023/10/26 13:23:13;;;;;;;18.20;10.57;;;;;;;;;;5059805;28;20274;-38
2023/10/26 13:25:38;;;;;;;19.87;10.47;;;;;;;;;;5062598;28;20258;-38
2023/10/26 13:28:03;;;;;;;16.83;9.53;;;;;;;;;;5061799;28;20951;-38
2023/10/26 13:30:29;;;;;;;20.13;11.32;;;;;;;;;;5050344;28;20281;-38
2023/10/26 13:32:54;;;;;;;17.37;10.33;;;;;;;;;;5057876;28;20406;-38
2023/10/26 13:35:19;;;;;;;17.98;11.18;;;;;;;;;;5059848;28;20275;-38
2023/10/26 13:37:44;;;;;;;18.23;10.15;;;;;;;;;;5046022;28;20039;-38
2023/10/26 13:40:10;;;;;;;16.50;10.23;;;;;;;;;;5062351;28;20028;-39
2023/10/26 13:42:35;;;;;;;16.65;10.23;;;;;;;;;;5065058;28;20032;-38
2023/10/26 13:45:01;;;;;;;13.43;8.73;;;;;;;;;;5056649;28;20060;-39
2023/10/26 13:47:26;;;;;;;20.83;10.20;;;;;;;;;;5058886;28;20031;-39
2023/10/26 13:49:51;;;;;;;18.17;9.10;;;;;;;;;;5061905;28;20029;-39
2023/10/26 13:52:17;;;;;;;18.77;8.47;;;;;;;;;;5061026;28;20838;-39
2023/10/26 13:54:42;;;;;;;16.23;10.07;;;;;;;;;;5061337;28;20361;-39
2023/10/26 13:57:07;;;;;;;16.33;8.50;;;;;;;;;;5063844;28;20282;-40
2023/10/26 13:59:34;;;;;;;17.73;8.10;;;;;;;;;;5065471;28;20274;-39
2023/10/26 14:02:00;;;;;;;15.27;8.35;;;;;;;;;;5060101;28;20540;-37
2023/10/26 14:04:25;;;;;;;17.83;8.53;;;;;;;;;;5062414;28;20040;-37
2023/10/26 14:06:50;;;;;;;18.70;8.83;;;;;;;;;;5062212;28;20286;-38
2023/10/26 14:09:15;;;;;;;14.32;8.48;;;;;;;;;;5067769;28;20389;-39
2023/10/26 14:11:41;;;;;;;13.73;8.82;;;;;;;;;;5065576;28;20032;-38